Time;durP1;ratioP1;P1;durP2;ratioP2;P2;SDS_P1;SDS_P2;PMS_P1;PMS_P2;Temp;Humidity;BMP_temperature;BMP_pressure;BME280_temperature;BME280_humidity;BME280_pressure;Samples;Min_cycle;Max_cycle;Signal;HPM_P1;HPM_P2
2022/07/03 00:01:38;;;;;;;2.85;1.13;;;17.50;64.70;;;;;;4994593;28;20106;-84
2022/07/03 00:04:04;;;;;;;5.82;1.00;;;17.50;64.70;;;;;;4994230;28;20026;-85
2022/07/03 00:06:31;;;;;;;4.13;1.15;;;17.50;63.70;;;;;;4986961;28;20146;-85
2022/07/03 00:08:58;;;;;;;1.67;0.90;;;17.40;64.20;;;;;;4995968;28;20026;-84
2022/07/03 00:11:24;;;;;;;3.72;1.10;;;17.30;65.30;;;;;;4994780;28;20053;-84
2022/07/03 00:13:50;;;;;;;1.55;0.98;;;17.30;64.60;;;;;;4999463;28;20027;-84
2022/07/03 00:16:16;;;;;;;7.28;1.40;;;17.30;65.20;;;;;;4976427;28;20098;-84
2022/07/03 00:18:42;;;;;;;4.43;1.40;;;17.30;64.70;;;;;;5010547;28;20485;-84
2022/07/03 00:21:10;;;;;;;3.85;1.30;;;17.40;64.80;;;;;;5015420;28;20394;-84
2022/07/03 00:23:43;;;;;;;3.38;1.20;;;17.30;64.60;;;;;;5002200;28;20026;-84
2022/07/03 00:26:10;;;;;;;4.13;1.20;;;17.30;65.30;;;;;;4995721;28;20019;-84
2022/07/03 00:28:37;;;;;;;2.53;1.02;;;17.30;65.00;;;;;;4990237;28;20081;-84
2022/07/03 00:31:02;;;;;;;3.22;1.10;;;17.30;65.10;;;;;;4976270;28;20404;-84
2022/07/03 00:33:33;;;;;;;2.72;1.08;;;17.20;65.10;;;;;;4976270;28;20118;-84
2022/07/03 00:35:59;;;;;;;4.32;1.55;;;17.10;65.60;;;;;;4976241;28;20477;-84
2022/07/03 00:38:26;;;;;;;2.03;1.13;;;17.00;66.20;;;;;;4976308;28;20038;-84
2022/07/03 00:40:54;;;;;;;5.03;0.98;;;17.00;65.80;;;;;;4975859;28;20371;-84
2022/07/03 00:43:20;;;;;;;3.65;1.50;;;16.90;66.00;;;;;;4981322;28;20057;-84
2022/07/03 00:45:49;;;;;;;4.28;1.20;;;17.00;65.90;;;;;;4994247;28;20045;-84
2022/07/03 00:48:17;;;;;;;2.92;1.20;;;16.90;66.50;;;;;;4995606;28;20030;-85
2022/07/03 00:50:50;;;;;;;2.67;1.30;;;16.90;66.40;;;;;;4995613;28;20615;-84
2022/07/03 00:53:28;;;;;;;3.40;1.20;;;16.90;65.90;;;;;;4978676;28;20030;-85
2022/07/03 00:55:55;;;;;;;3.53;1.90;;;16.80;65.60;;;;;;4976040;28;20504;-84
2022/07/03 00:58:21;;;;;;;3.17;1.13;;;16.80;66.00;;;;;;4974744;28;20051;-84
2022/07/03 01:00:50;;;;;;;2.50;1.35;;;16.80;66.10;;;;;;4988453;28;20033;-84
2022/07/03 01:03:35;;;;;;;6.00;1.30;;;16.80;66.70;;;;;;4994828;28;20084;-84
2022/07/03 01:06:07;;;;;;;7.20;1.48;;;16.70;66.80;;;;;;4995544;28;20023;-85
2022/07/03 01:08:45;;;;;;;4.38;1.40;;;16.70;67.00;;;;;;4995482;28;20157;-84
2022/07/03 01:11:31;;;;;;;3.67;1.80;;;16.70;67.00;;;;;;4994062;28;20036;-85
2022/07/03 01:14:21;;;;;;;6.28;1.80;;;16.70;66.80;;;;;;4993891;28;20030;-84
2022/07/03 01:17:06;;;;;;;4.00;1.67;;;16.80;67.00;;;;;;4982317;28;20035;-84
2022/07/03 01:19:42;;;;;;;5.13;1.70;;;16.60;67.40;;;;;;5018455;28;20030;-84
2022/07/03 01:22:29;;;;;;;5.75;1.88;;;16.50;67.70;;;;;;4980431;28;20102;-84
2022/07/03 01:25:21;;;;;;;2.40;1.30;;;16.40;67.90;;;;;;4979371;28;20022;-84
2022/07/03 01:28:09;;;;;;;6.60;2.05;;;16.40;67.60;;;;;;4979393;28;20034;-84
2022/07/03 01:30:38;;;;;;;3.83;1.77;;;16.50;67.20;;;;;;4978608;28;20401;-84
2022/07/03 01:33:30;;;;;;;7.77;1.40;;;16.50;67.00;;;;;;4979138;28;20034;-83
2022/07/03 01:36:17;;;;;;;3.42;1.35;;;16.50;67.00;;;;;;4980761;28;20708;-84
2022/07/03 01:38:43;;;;;;;2.33;1.25;;;16.30;68.00;;;;;;4979057;28;20777;-84
2022/07/03 01:41:10;;;;;;;1.98;1.05;;;16.30;67.60;;;;;;4977849;28;20076;-83
2022/07/03 01:44:02;;;;;;;3.88;1.15;;;16.40;67.30;;;;;;4978959;28;20027;-84
2022/07/03 01:46:30;;;;;;;2.50;1.50;;;16.40;67.10;;;;;;4978679;28;20524;-84
2022/07/03 01:49:08;;;;;;;3.00;1.40;;;16.40;67.20;;;;;;4977784;28;20030;-84
2022/07/03 01:51:34;;;;;;;2.10;1.38;;;16.40;67.10;;;;;;4978100;28;20155;-84
2022/07/03 01:54:03;;;;;;;3.30;1.30;;;16.40;66.90;;;;;;4978636;28;20098;-84
2022/07/03 01:56:32;;;;;;;2.97;1.30;;;16.40;67.20;;;;;;4978780;28;20527;-84
2022/07/03 01:58:59;;;;;;;5.10;1.30;;;16.30;67.20;;;;;;4978610;28;20054;-84
2022/07/03 02:01:51;;;;;;;3.58;1.58;;;16.30;67.10;;;;;;4994161;28;20034;-84
2022/07/03 02:04:24;;;;;;;4.53;1.63;;;16.30;67.50;;;;;;4998064;28;20015;-84
2022/07/03 02:06:49;;;;;;;2.50;1.40;;;16.30;67.10;;;;;;4997035;28;20034;-84
2022/07/03 02:09:21;;;;;;;2.50;0.95;;;16.30;67.10;;;;;;4982182;28;20027;-84
2022/07/03 02:11:50;;;;;;;3.53;1.10;;;16.30;67.50;;;;;;4977142;28;20046;-84
2022/07/03 02:14:22;;;;;;;2.50;0.90;;;16.30;67.50;;;;;;4977387;28;20037;-84
2022/07/03 02:17:01;;;;;;;4.10;1.20;;;16.30;67.70;;;;;;4980061;28;20502;-84
2022/07/03 02:19:55;;;;;;;7.03;1.70;;;16.20;67.90;;;;;;4978289;28;20029;-84
2022/07/03 02:22:27;;;;;;;3.58;0.90;;;16.10;68.20;;;;;;4977525;28;20038;-83
2022/07/03 02:24:58;;;;;;;2.97;1.10;;;16.10;68.20;;;;;;4978404;28;20023;-83
2022/07/03 02:27:28;;;;;;;3.78;1.27;;;16.00;68.10;;;;;;4977613;28;20031;-84
2022/07/03 02:30:04;;;;;;;2.25;0.80;;;16.00;68.00;;;;;;4978273;28;20025;-84
2022/07/03 02:32:35;;;;;;;3.05;1.17;;;16.00;67.60;;;;;;4978204;28;20035;-84
2022/07/03 02:35:29;;;;;;;1.75;1.17;;;15.90;68.10;;;;;;4978190;28;20078;-83
2022/07/03 02:38:11;;;;;;;1.75;1.08;;;15.90;68.20;;;;;;4978082;28;20030;-83
2022/07/03 02:40:50;;;;;;;2.63;1.20;;;15.90;67.80;;;;;;4978289;28;20081;-84
2022/07/03 02:43:38;;;;;;;3.33;1.25;;;15.90;68.30;;;;;;4977785;28;20782;-84
2022/07/03 02:49:48;;;;;;;5.88;1.50;;;15.80;68.30;;;;;;4977888;28;20098;-84
2022/07/03 02:52:32;;;;;;;3.25;0.88;;;15.80;68.60;;;;;;4977634;28;20061;-84
2022/07/03 02:55:23;;;;;;;4.80;1.30;;;15.80;68.10;;;;;;4977746;28;20031;-83
2022/07/03 02:58:01;;;;;;;1.88;1.10;;;15.80;68.10;;;;;;4976878;28;20066;-84
2022/07/03 03:00:31;;;;;;;4.47;1.48;;;15.80;68.00;;;;;;4987448;28;20485;-84
2022/07/03 03:03:01;;;;;;;7.22;1.52;;;15.90;68.00;;;;;;4997135;28;20026;-84
2022/07/03 03:05:49;;;;;;;3.10;1.10;;;15.80;68.00;;;;;;5011959;28;20050;-84
2022/07/03 03:08:43;;;;;;;2.25;1.42;;;15.70;68.60;;;;;;4985295;28;20042;-84
2022/07/03 03:11:33;;;;;;;2.45;1.30;;;15.60;68.80;;;;;;4976323;28;20031;-83
2022/07/03 03:14:04;;;;;;;5.32;1.25;;;15.60;68.70;;;;;;4976565;28;20058;-84
2022/07/03 03:16:29;;;;;;;;;;;15.50;68.60;;;;;;4976743;28;20071;-84
2022/07/03 03:18:55;;;;;;;4.10;1.17;;;15.40;68.90;;;;;;4980206;28;19949;-85
2022/07/03 03:21:26;;;;;;;5.43;1.27;;;15.30;69.30;;;;;;4976237;28;20027;-83
2022/07/03 03:23:52;;;;;;;1.90;1.17;;;15.20;68.80;;;;;;4977136;28;20015;-84
2022/07/03 03:26:22;;;;;;;3.17;1.25;;;15.10;69.50;;;;;;4977147;28;20019;-84
2022/07/03 03:28:49;;;;;;;1.88;1.02;;;15.20;69.30;;;;;;4976904;28;20022;-84
2022/07/03 03:31:33;;;;;;;1.92;0.80;;;15.20;69.50;;;;;;4976360;28;20093;-84
2022/07/03 03:34:00;;;;;;;2.08;1.02;;;15.20;69.20;;;;;;4976247;28;20037;-84
2022/07/03 03:36:26;;;;;;;3.33;1.60;;;15.20;69.20;;;;;;4975915;28;20057;-84
2022/07/03 03:38:51;;;;;;;3.47;1.10;;;15.30;69.10;;;;;;4975159;28;20031;-84
2022/07/03 03:41:18;;;;;;;2.35;0.88;;;15.30;69.00;;;;;;4976901;28;20022;-84
2022/07/03 03:43:44;;;;;;;5.88;1.42;;;15.30;68.80;;;;;;4976762;28;20046;-84
2022/07/03 03:46:10;;;;;;;2.08;1.20;;;15.30;68.70;;;;;;4976918;28;20133;-84
2022/07/03 03:48:35;;;;;;;2.05;1.00;;;15.20;68.60;;;;;;4976779;28;20062;-85
2022/07/03 03:51:04;;;;;;;1.50;1.23;;;15.20;68.50;;;;;;4976844;28;20053;-84
2022/07/03 03:53:30;;;;;;;3.33;1.20;;;15.20;68.50;;;;;;4976777;28;20508;-85
2022/07/03 03:56:06;;;;;;;4.25;1.05;;;15.20;69.00;;;;;;4977024;28;20401;-83
2022/07/03 03:58:35;;;;;;;1.75;1.23;;;15.20;68.80;;;;;;4976110;28;20046;-84
2022/07/03 04:01:01;;;;;;;3.10;1.50;;;15.10;68.50;;;;;;4990722;28;20032;-84
2022/07/03 04:03:28;;;;;;;1.35;0.90;;;15.10;68.80;;;;;;4992718;28;20493;-84
2022/07/03 04:05:55;;;;;;;2.00;0.95;;;15.00;69.00;;;;;;4975122;28;20474;-84
2022/07/03 04:08:22;;;;;;;2.95;1.27;;;14.90;69.50;;;;;;4975815;28;20130;-84
2022/07/03 04:10:48;;;;;;;4.10;1.02;;;14.90;69.60;;;;;;4976471;28;20031;-84
2022/07/03 04:13:14;;;;;;;3.13;1.20;;;14.90;69.40;;;;;;4976307;28;20027;-84
2022/07/03 04:15:40;;;;;;;2.85;0.82;;;14.90;69.60;;;;;;4976245;28;20090;-84
2022/07/03 04:18:05;;;;;;;2.33;0.88;;;14.90;69.40;;;;;;5000798;28;20507;-84
2022/07/03 04:20:32;;;;;;;1.55;0.82;;;15.00;69.30;;;;;;4990069;28;20043;-84
2022/07/03 04:22:59;;;;;;;1.38;0.70;;;14.90;68.90;;;;;;4975172;28;20026;-84
2022/07/03 04:25:24;;;;;;;1.75;0.90;;;14.90;69.50;;;;;;4976300;28;20493;-84
2022/07/03 04:27:50;;;;;;;4.43;1.08;;;14.80;69.80;;;;;;4991270;28;20449;-83
2022/07/03 04:30:16;;;;;;;2.20;0.88;;;14.80;69.70;;;;;;4994633;28;20034;-84
2022/07/03 04:32:42;;;;;;;1.10;0.90;;;14.80;69.90;;;;;;4995693;28;20061;-84
2022/07/03 04:35:08;;;;;;;4.93;1.33;;;14.80;69.70;;;;;;4995658;28;20041;-84
2022/07/03 04:37:34;;;;;;;4.90;1.50;;;14.90;69.50;;;;;;4977907;28;20149;-84
2022/07/03 04:39:59;;;;;;;1.60;1.20;;;14.90;69.80;;;;;;4978951;28;20062;-84
2022/07/03 04:42:25;;;;;;;4.40;0.95;;;14.80;69.60;;;;;;4995464;28;20070;-84
2022/07/03 04:44:51;;;;;;;3.67;0.90;;;14.90;69.60;;;;;;4994330;28;20050;-84
2022/07/03 04:47:16;;;;;;;2.30;0.90;;;14.90;69.60;;;;;;4983068;28;20042;-84
2022/07/03 04:49:42;;;;;;;2.40;1.00;;;14.90;69.50;;;;;;4975212;28;20158;-84
2022/07/03 04:52:08;;;;;;;2.92;1.00;;;14.80;69.40;;;;;;4978759;28;20105;-84
2022/07/03 04:54:34;;;;;;;4.00;1.08;;;14.80;69.70;;;;;;4979955;28;20033;-84
2022/07/03 04:57:00;;;;;;;3.33;1.20;;;14.80;69.80;;;;;;4987576;28;20039;-84
2022/07/03 04:59:26;;;;;;;3.25;1.63;;;14.80;69.80;;;;;;4981109;28;20035;-84
2022/07/03 05:01:51;;;;;;;2.72;1.45;;;15.00;70.10;;;;;;4998054;28;20026;-85
2022/07/03 05:04:17;;;;;;;2.53;1.05;;;15.00;70.00;;;;;;4990996;28;20424;-84
2022/07/03 05:06:43;;;;;;;4.40;1.33;;;15.00;69.80;;;;;;4996406;28;20022;-84
2022/07/03 05:09:09;;;;;;;1.92;1.00;;;15.00;70.20;;;;;;4979472;28;20027;-84
2022/07/03 05:11:35;;;;;;;2.20;1.13;;;15.00;70.20;;;;;;4979612;28;20023;-84
2022/07/03 05:14:02;;;;;;;2.13;1.02;;;15.00;70.30;;;;;;4978320;28;20030;-84
2022/07/03 05:16:27;;;;;;;1.75;1.13;;;15.00;70.10;;;;;;4979758;28;20022;-84
2022/07/03 05:18:53;;;;;;;2.67;1.27;;;15.00;70.50;;;;;;5016675;28;20576;-84
2022/07/03 05:21:19;;;;;;;3.15;1.05;;;15.00;70.70;;;;;;5001386;28;20097;-84
2022/07/03 05:23:45;;;;;;;3.45;1.40;;;15.00;70.30;;;;;;4994894;28;20037;-84
2022/07/03 05:26:10;;;;;;;1.63;1.08;;;15.00;70.20;;;;;;4979178;28;20769;-85
2022/07/03 05:28:36;;;;;;;2.97;1.30;;;15.00;70.50;;;;;;4979079;28;20094;-84
2022/07/03 05:31:02;;;;;;;1.92;1.38;;;15.00;70.80;;;;;;4979266;28;20038;-84
2022/07/03 05:33:28;;;;;;;4.35;1.33;;;15.00;71.00;;;;;;4979458;28;20027;-84
2022/07/03 05:35:55;;;;;;;3.35;1.23;;;15.00;70.50;;;;;;4978150;28;20494;-84
2022/07/03 05:41:16;;;;;;;1.92;0.98;;;15.00;71.10;;;;;;4995745;28;20034;-85
2022/07/03 05:43:42;;;;;;;4.65;1.15;;;15.00;71.20;;;;;;4998326;28;20030;-85
2022/07/03 05:46:08;;;;;;;2.05;0.98;;;15.00;71.00;;;;;;4997055;28;20043;-85
2022/07/03 05:48:34;;;;;;;4.38;1.23;;;15.00;71.10;;;;;;4993084;28;20393;-84
2022/07/03 05:51:00;;;;;;;2.88;1.08;;;15.00;71.10;;;;;;4984506;28;20101;-85
2022/07/03 05:53:26;;;;;;;2.65;1.10;;;15.00;70.80;;;;;;4988189;28;20130;-85
2022/07/03 05:55:51;;;;;;;4.53;1.38;;;15.10;71.20;;;;;;4977754;28;20033;-85
2022/07/03 05:58:17;;;;;;;3.70;1.08;;;15.10;71.00;;;;;;4988795;28;20050;-85
2022/07/03 06:00:44;;;;;;;2.58;0.98;;;15.10;71.00;;;;;;4986668;28;20050;-85
2022/07/03 06:03:10;;;;;;;4.03;0.98;;;15.20;70.70;;;;;;4986720;28;20031;-85
2022/07/03 06:05:36;;;;;;;5.68;0.95;;;15.20;70.90;;;;;;4977390;28;20033;-84
2022/07/03 06:08:02;;;;;;;3.90;1.15;;;15.20;70.50;;;;;;4977577;28;20031;-84
2022/07/03 06:10:29;;;;;;;3.53;1.10;;;15.20;70.90;;;;;;4980916;28;20038;-85
2022/07/03 06:12:55;;;;;;;4.70;1.10;;;15.20;70.40;;;;;;4978409;28;20033;-85
2022/07/03 06:15:20;;;;;;;4.18;1.05;;;15.20;71.00;;;;;;4979404;28;20034;-82
2022/07/03 06:17:46;;;;;;;3.45;0.80;;;15.20;70.60;;;;;;4996709;28;20042;-86
2022/07/03 06:20:13;;;;;;;4.63;1.55;;;15.30;71.10;;;;;;4993375;28;20030;-86
2022/07/03 06:22:40;;;;;;;3.03;1.00;;;15.30;71.00;;;;;;4994100;28;20022;-83
2022/07/03 06:25:06;;;;;;;1.30;0.88;;;15.30;71.30;;;;;;4985628;28;20412;-84
2022/07/03 06:27:32;;;;;;;6.35;0.90;;;15.40;70.90;;;;;;4987729;28;20086;-85
2022/07/03 06:29:58;;;;;;;2.72;0.93;;;15.40;71.10;;;;;;4990295;28;20502;-85
2022/07/03 06:32:24;;;;;;;3.63;1.08;;;15.40;70.90;;;;;;4998030;28;20374;-90
2022/07/03 06:34:49;;;;;;;7.38;1.20;;;15.50;71.70;;;;;;4987828;28;20031;-87
2022/07/03 06:37:16;;;;;;;2.20;0.88;;;15.50;71.00;;;;;;5004102;28;20018;-88
2022/07/03 06:39:41;;;;;;;2.63;0.80;;;15.60;71.10;;;;;;4987469;28;20081;-90
2022/07/03 06:42:07;;;;;;;3.33;1.00;;;15.60;70.80;;;;;;5003224;28;20027;-89
2022/07/03 06:44:33;;;;;;;1.00;0.73;;;15.70;71.40;;;;;;4988640;28;20046;-89
2022/07/03 06:47:02;;;;;;;2.42;0.70;;;15.70;71.40;;;;;;5005405;28;20022;-88
2022/07/03 06:49:29;;;;;;;2.40;0.93;;;15.70;70.90;;;;;;4986775;28;20034;-89
2022/07/03 06:51:55;;;;;;;3.42;1.00;;;15.80;71.40;;;;;;4988471;28;20130;-88
2022/07/03 06:54:20;;;;;;;5.30;0.93;;;15.80;71.10;;;;;;4981197;28;20149;-84
2022/07/03 06:56:46;;;;;;;1.90;0.75;;;15.90;71.00;;;;;;4985885;28;20560;-87
2022/07/03 06:59:12;;;;;;;2.55;0.85;;;15.90;70.80;;;;;;4985534;28;20047;-88
2022/07/03 07:01:38;;;;;;;5.95;1.33;;;16.00;71.20;;;;;;4988328;28;20089;-88
2022/07/03 07:04:03;;;;;;;10.05;1.23;;;16.10;71.10;;;;;;4982199;28;20117;-82
2022/07/03 07:06:29;;;;;;;3.40;0.80;;;16.00;70.90;;;;;;4977003;28;20062;-83
2022/07/03 07:08:55;;;;;;;3.75;0.70;;;16.10;70.80;;;;;;4976772;28;20097;-83
2022/07/03 07:11:20;;;;;;;3.05;1.00;;;16.20;70.90;;;;;;4975624;28;20035;-82
2022/07/03 07:13:46;;;;;;;3.03;0.73;;;16.30;70.70;;;;;;4976327;28;20471;-83
2022/07/03 07:16:12;;;;;;;4.65;1.02;;;16.30;70.50;;;;;;4977106;28;20081;-80
2022/07/03 07:18:40;;;;;;;3.50;1.05;;;16.30;70.10;;;;;;5009983;28;20034;-81
2022/07/03 07:21:06;;;;;;;4.63;0.95;;;16.40;69.70;;;;;;5004509;28;20027;-82
2022/07/03 07:23:31;;;;;;;2.67;1.30;;;16.50;70.00;;;;;;4977235;28;20033;-82
2022/07/03 07:25:57;;;;;;;3.33;1.02;;;16.70;69.40;;;;;;4985560;28;20077;-82
2022/07/03 07:28:23;;;;;;;5.35;1.17;;;16.80;68.90;;;;;;4996298;28;20025;-82
2022/07/03 07:30:48;;;;;;;2.63;0.80;;;17.00;68.20;;;;;;4995142;28;20018;-83
2022/07/03 07:33:14;;;;;;;3.28;0.70;;;17.20;68.00;;;;;;4991416;28;20519;-85
2022/07/03 07:35:40;;;;;;;1.95;0.75;;;17.40;66.20;;;;;;4995988;28;20058;-83
2022/07/03 07:38:05;;;;;;;2.08;0.73;;;17.90;65.60;;;;;;4996194;28;20027;-81
2022/07/03 07:40:31;;;;;;;2.80;0.82;;;18.80;63.00;;;;;;4992754;28;20093;-82
2022/07/03 07:42:57;;;;;;;2.03;0.60;;;20.50;59.10;;;;;;4990867;28;20032;-84
2022/07/03 07:45:24;;;;;;;6.40;0.57;;;23.50;52.40;;;;;;4994714;28;20023;-85
2022/07/03 07:47:50;;;;;;;4.65;0.40;;;26.70;42.70;;;;;;4989765;28;20030;-82
2022/07/03 07:50:16;;;;;;;2.92;0.95;;;29.10;39.10;;;;;;4990665;28;20027;-81
2022/07/03 07:52:41;;;;;;;3.42;0.43;;;31.10;34.70;;;;;;4995959;28;20157;-86
2022/07/03 07:55:07;;;;;;;4.45;0.80;;;32.80;31.80;;;;;;4995694;28;20027;-83
2022/07/03 07:57:38;;;;;;;3.40;0.50;;;33.80;29.90;;;;;;5010197;28;20053;-84
2022/07/03 08:00:11;;;;;;;4.65;0.75;;;32.70;29.40;;;;;;4995144;28;20062;-87
2022/07/03 08:05:35;;;;;;;3.65;0.50;;;33.90;29.30;;;;;;4996188;28;20226;-82
2022/07/03 08:08:04;;;;;;;4.35;0.63;;;33.90;28.70;;;;;;4996154;28;20022;-89
2022/07/03 08:10:36;;;;;;;3.47;0.80;;;34.60;28.90;;;;;;4975955;28;20041;-86
2022/07/03 08:13:02;;;;;;;2.63;0.40;;;36.10;26.90;;;;;;4987753;28;20160;-84
2022/07/03 08:15:28;;;;;;;2.22;0.40;;;35.00;26.90;;;;;;4988387;28;20121;-94
2022/07/03 08:17:59;;;;;;;2.10;0.57;;;35.00;27.60;;;;;;4994321;28;20043;-92
2022/07/03 08:20:25;;;;;;;2.00;0.38;;;36.40;26.10;;;;;;4969239;28;20038;-88
2022/07/03 08:22:51;;;;;;;2.05;0.28;;;34.70;27.50;;;;;;4968210;28;20046;-85
2022/07/03 08:25:17;;;;;;;4.88;0.77;;;32.00;30.40;;;;;;4968885;28;20035;-87
2022/07/03 08:27:45;;;;;;;3.08;0.60;;;30.30;33.10;;;;;;4969881;28;20514;-91
2022/07/03 08:30:14;;;;;;;3.42;0.73;;;31.30;32.90;;;;;;4972591;28;20584;-90
2022/07/03 08:32:40;;;;;;;1.75;0.40;;;33.70;29.80;;;;;;4970483;28;20039;-92
2022/07/03 08:35:06;;;;;;;2.80;0.63;;;35.60;27.70;;;;;;4971452;28;20034;-89
2022/07/03 08:37:32;;;;;;;1.02;0.40;;;34.00;27.40;;;;;;4969859;28;20023;-84
2022/07/03 08:39:57;;;;;;;0.52;0.20;;;33.50;28.00;;;;;;4981348;28;20038;-84
2022/07/03 08:42:26;;;;;;;1.38;0.30;;;34.90;26.30;;;;;;4976783;28;20074;-84
2022/07/03 08:44:54;;;;;;;2.20;0.73;;;34.20;26.90;;;;;;4976364;28;20042;-84
2022/07/03 08:47:21;;;;;;;1.43;0.30;;;33.50;28.00;;;;;;4978694;28;20022;-83
2022/07/03 08:49:48;;;;;;;3.85;0.50;;;32.30;29.20;;;;;;4986553;28;20761;-83
2022/07/03 08:52:14;;;;;;;2.28;0.40;;;30.60;31.80;;;;;;4986292;28;20093;-83
2022/07/03 08:54:40;;;;;;;5.30;0.60;;;29.40;33.30;;;;;;4987500;28;20034;-83
2022/07/03 08:57:06;;;;;;;2.58;0.47;;;28.40;35.30;;;;;;4982945;28;20056;-84
2022/07/03 08:59:36;;;;;;;3.10;0.70;;;29.80;33.10;;;;;;5000040;28;20030;-84
2022/07/03 09:02:05;;;;;;;1.13;0.43;;;29.80;33.10;;;;;;4983519;28;20070;-83
2022/07/03 09:04:35;;;;;;;1.98;0.40;;;30.80;32.50;;;;;;5010578;28;20041;-83
2022/07/03 09:07:01;;;;;;;2.10;0.50;;;31.30;31.00;;;;;;4982092;28;20065;-81
2022/07/03 09:09:27;;;;;;;2.22;0.40;;;31.10;31.30;;;;;;4976894;28;20742;-84
2022/07/03 09:11:53;;;;;;;3.83;0.50;;;32.80;29.50;;;;;;4966697;28;20038;-83
2022/07/03 09:14:19;;;;;;;3.22;0.43;;;34.20;27.60;;;;;;4993491;28;20045;-84
2022/07/03 09:16:45;;;;;;;1.33;0.28;;;35.50;25.80;;;;;;4993350;28;20117;-84
2022/07/03 09:19:11;;;;;;;2.40;0.30;;;34.90;25.90;;;;;;5006056;28;20133;-84
2022/07/03 09:21:48;;;;;;;1.60;0.20;;;33.10;27.70;;;;;;4992341;28;20030;-84
2022/07/03 09:24:14;;;;;;;2.63;0.38;;;31.80;29.40;;;;;;4988381;28;20022;-84
2022/07/03 09:26:51;;;;;;;4.43;0.70;;;30.50;31.40;;;;;;4985297;28;20038;-83
2022/07/03 09:29:17;;;;;;;0.57;0.30;;;31.50;29.40;;;;;;4971854;28;20049;-83
2022/07/03 09:31:42;;;;;;;1.02;0.15;;;31.90;29.10;;;;;;4975069;28;20030;-84
2022/07/03 09:34:08;;;;;;;1.17;0.20;;;30.90;30.40;;;;;;4984173;28;20057;-83
2022/07/03 09:36:48;;;;;;;3.15;0.30;;;30.30;32.20;;;;;;4992595;28;20030;-82
2022/07/03 09:39:30;;;;;;;1.77;0.40;;;29.50;33.10;;;;;;4982440;28;20086;-83
2022/07/03 09:42:14;;;;;;;0.75;0.20;;;28.80;34.30;;;;;;4987595;28;20522;-84
2022/07/03 09:44:47;;;;;;;0.47;0.20;;;30.20;32.70;;;;;;4985520;28;20389;-82
2022/07/03 09:47:18;;;;;;;1.00;0.20;;;32.40;28.80;;;;;;4982840;28;20023;-84
2022/07/03 09:49:44;;;;;;;1.52;0.20;;;33.10;29.20;;;;;;4995633;28;20038;-83
2022/07/03 09:52:26;;;;;;;1.23;0.30;;;32.10;30.00;;;;;;4980261;28;20039;-82
2022/07/03 09:54:52;;;;;;;2.25;0.30;;;30.90;30.10;;;;;;4982101;28;20862;-84
2022/07/03 09:57:19;;;;;;;2.17;0.43;;;30.10;31.90;;;;;;4986181;28;21748;-87
2022/07/03 09:59:45;;;;;;;1.35;0.30;;;29.30;33.10;;;;;;5004099;28;20125;-84
2022/07/03 10:02:11;;;;;;;1.52;0.30;;;28.80;34.10;;;;;;5004451;28;20867;-85
2022/07/03 10:04:40;;;;;;;1.70;0.40;;;29.40;33.90;;;;;;4984308;28;20260;-85
2022/07/03 10:07:06;;;;;;;3.30;0.40;;;29.60;33.10;;;;;;4976715;28;20026;-85
2022/07/03 10:09:33;;;;;;;0.90;0.10;;;29.80;32.60;;;;;;4995528;28;20173;-85
2022/07/03 10:12:01;;;;;;;1.23;0.30;;;30.60;32.20;;;;;;4991050;28;20045;-84
2022/07/03 10:14:32;;;;;;;4.47;0.47;;;30.70;30.80;;;;;;4984083;28;20452;-84
2022/07/03 10:17:00;;;;;;;1.85;0.43;;;30.40;31.80;;;;;;4983701;28;20042;-85
2022/07/03 10:19:28;;;;;;;1.50;0.40;;;29.80;31.70;;;;;;5011368;28;20034;-84
2022/07/03 10:22:02;;;;;;;1.27;0.38;;;29.10;33.30;;;;;;4995956;28;20034;-84
2022/07/03 10:24:30;;;;;;;2.20;0.30;;;28.60;35.10;;;;;;4991617;28;20045;-84
2022/07/03 10:26:57;;;;;;;1.17;0.30;;;28.20;35.60;;;;;;4983180;28;20541;-84
2022/07/03 10:29:28;;;;;;;2.25;0.28;;;28.60;36.10;;;;;;4977244;28;20113;-91
2022/07/03 10:31:54;;;;;;;0.63;0.30;;;28.40;35.60;;;;;;4982195;28;20034;-88
2022/07/03 10:34:22;;;;;;;1.67;0.30;;;29.00;34.40;;;;;;4992168;28;20039;-87
2022/07/03 10:36:56;;;;;;;1.45;0.30;;;30.20;32.90;;;;;;5008194;28;20046;-87
2022/07/03 10:39:53;;;;;;;4.10;1.23;;;30.30;32.40;;;;;;4997612;28;20598;-86
2022/07/03 10:45:12;;;;;;;1.10;0.30;;;29.00;34.10;;;;;;4997986;28;20113;-86
2022/07/03 10:47:39;;;;;;;1.02;0.20;;;28.50;34.90;;;;;;5010980;28;20022;-83
2022/07/03 10:50:11;;;;;;;0.70;0.20;;;28.20;34.40;;;;;;4994782;28;20026;-84
2022/07/03 10:52:37;;;;;;;16.88;6.82;;;28.30;35.00;;;;;;4996455;28;20046;-91
2022/07/03 10:55:06;;;;;;;12.68;5.55;;;28.20;35.20;;;;;;4995681;28;20030;-90
2022/07/03 10:57:36;;;;;;;6.22;2.92;;;27.90;36.10;;;;;;4988037;28;20057;-87
2022/07/03 11:00:05;;;;;;;5.13;2.00;;;27.80;36.50;;;;;;4983985;28;20037;-82
2022/07/03 11:02:34;;;;;;;;;;;27.70;36.40;;;;;;4988649;28;20037;-85
2022/07/03 11:05:00;;;;;;;1.25;0.20;;;27.50;36.10;;;;;;4991780;28;19913;-80
2022/07/03 11:07:28;;;;;;;0.85;0.20;;;27.30;36.40;;;;;;4975428;28;20066;-82
2022/07/03 11:10:10;;;;;;;0.75;0.20;;;27.30;36.50;;;;;;4991715;28;20030;-82
2022/07/03 11:12:59;;;;;;;2.13;0.30;;;27.00;36.80;;;;;;4990676;28;20061;-81
2022/07/03 11:15:37;;;;;;;0.98;0.40;;;26.90;37.30;;;;;;4989375;28;20105;-83
2022/07/03 11:18:09;;;;;;;0.30;0.20;;;26.80;37.50;;;;;;5000523;28;20042;-82
2022/07/03 11:20:41;;;;;;;1.60;0.52;;;27.00;37.60;;;;;;5018639;28;20100;-80
2022/07/03 11:23:13;;;;;;;2.00;0.30;;;27.30;37.00;;;;;;5005089;28;20034;-80
2022/07/03 11:25:43;;;;;;;1.27;0.45;;;27.50;36.90;;;;;;4975247;28;20031;-82
2022/07/03 11:28:34;;;;;;;1.20;0.50;;;27.40;36.50;;;;;;4975097;28;20038;-83
2022/07/03 11:31:13;;;;;;;1.35;0.50;;;27.60;36.00;;;;;;4991978;28;20031;-82
2022/07/03 11:33:42;;;;;;;;;;;27.60;36.00;;;;;;4975034;28;20035;-83
2022/07/03 11:36:14;;;;;;;1.90;0.35;;;27.70;36.10;;;;;;4985411;28;19911;-89
2022/07/03 11:38:40;;;;;;;1.35;0.40;;;27.50;37.10;;;;;;4986938;28;20114;-86
2022/07/03 11:41:11;;;;;;;1.63;0.30;;;27.50;36.30;;;;;;4991284;28;20101;-82
2022/07/03 11:43:45;;;;;;;2.20;0.77;;;27.50;36.70;;;;;;4989944;28;20099;-83
2022/07/03 11:46:16;;;;;;;4.60;2.30;;;27.50;36.20;;;;;;5011577;28;20026;-83
2022/07/03 11:48:42;;;;;;;4.10;2.53;;;27.80;36.90;;;;;;4999749;28;20105;-84
2022/07/03 11:51:08;;;;;;;3.38;0.40;;;27.90;36.30;;;;;;4995639;28;20053;-82
2022/07/03 11:53:38;;;;;;;1.95;0.90;;;27.60;35.50;;;;;;4992243;28;20815;-87
2022/07/03 11:56:06;;;;;;;2.00;0.70;;;27.70;35.80;;;;;;4984460;28;20031;-84
2022/07/03 11:58:50;;;;;;;2.95;0.30;;;27.70;35.80;;;;;;4986872;28;20405;-84
2022/07/03 12:01:22;;;;;;;2.38;0.45;;;27.80;36.20;;;;;;4993458;28;20435;-81
2022/07/03 12:03:49;;;;;;;1.98;0.60;;;27.70;36.20;;;;;;4996798;28;20030;-82
2022/07/03 12:06:16;;;;;;;0.80;0.30;;;27.30;35.70;;;;;;5012317;28;20030;-82
2022/07/03 12:08:46;;;;;;;2.45;0.50;;;27.20;36.10;;;;;;4990329;28;20034;-91
2022/07/03 12:11:14;;;;;;;0.47;0.20;;;27.30;37.00;;;;;;4986402;28;20026;-87
2022/07/03 12:13:40;;;;;;;1.65;0.30;;;27.60;36.60;;;;;;5011540;28;20118;-82
2022/07/03 12:16:14;;;;;;;1.73;0.35;;;27.70;35.40;;;;;;5008335;28;20034;-81
2022/07/03 12:18:53;;;;;;;1.10;0.30;;;27.80;36.10;;;;;;4985725;28;20501;-93
2022/07/03 12:21:20;;;;;;;;;;;27.80;36.60;;;;;;4983523;28;20130;-83
2022/07/03 12:23:50;;;;;;;1.42;0.30;;;27.80;36.00;;;;;;4977794;28;19913;-89
2022/07/03 12:26:33;;;;;;;2.60;0.45;;;27.60;36.10;;;;;;4975432;28;20513;-85
2022/07/03 12:29:08;;;;;;;0.65;0.10;;;27.30;36.20;;;;;;4984631;28;20588;-81
2022/07/03 12:31:34;;;;;;;1.10;0.20;;;27.30;35.80;;;;;;4994966;28;20076;-80
2022/07/03 12:34:01;;;;;;;1.50;0.38;;;27.30;36.80;;;;;;4979436;28;20050;-81
2022/07/03 12:36:27;;;;;;;0.73;0.22;;;27.50;36.90;;;;;;4983949;28;20034;-80
2022/07/03 12:38:54;;;;;;;1.58;0.35;;;27.40;36.10;;;;;;4985646;28;20038;-79
2022/07/03 12:41:21;;;;;;;2.00;0.20;;;27.30;35.60;;;;;;4983517;28;20025;-80
2022/07/03 12:43:48;;;;;;;2.17;0.30;;;27.30;36.10;;;;;;4990712;28;20026;-79
2022/07/03 12:46:35;;;;;;;1.98;0.30;;;27.40;35.40;;;;;;5003038;28;20775;-80
2022/07/03 12:49:09;;;;;;;1.38;0.43;;;27.60;35.40;;;;;;4988878;28;20453;-80
2022/07/03 12:51:45;;;;;;;1.17;0.32;;;27.40;35.50;;;;;;4990609;28;20031;-88
2022/07/03 12:54:14;;;;;;;1.13;0.38;;;27.50;36.20;;;;;;4977209;28;20118;-87
2022/07/03 12:56:41;;;;;;;1.37;0.20;;;27.60;36.10;;;;;;4974051;28;20027;-87
2022/07/03 12:59:23;;;;;;;1.48;0.32;;;27.50;35.90;;;;;;4988911;28;20282;-87
2022/07/03 13:02:03;;;;;;;0.30;0.13;;;27.20;36.50;;;;;;4994852;28;20018;-87
2022/07/03 13:04:32;;;;;;;0.80;0.20;;;26.90;36.60;;;;;;4982799;28;20018;-86
2022/07/03 13:07:06;;;;;;;2.10;0.30;;;26.80;36.70;;;;;;4989803;28;20022;-86
2022/07/03 13:09:36;;;;;;;1.67;0.40;;;26.80;36.70;;;;;;4984393;28;20555;-87
2022/07/03 13:12:02;;;;;;;1.30;0.20;;;26.60;37.30;;;;;;5006559;28;20113;-88
2022/07/03 13:14:28;;;;;;;0.45;0.25;;;26.70;37.30;;;;;;4992715;28;20026;-87